LIPL/QBS METAR and TAF weather

Enter ICAO airport designator
Station Type Date Time Source
LIPL METAR 2021/09/25 10:55 UTC NOAA

LIPL 251055Z 15005KT 9999 SCT036 23/18 Q1021 RMK SCT VIS MIN 9999 WIND THR31 13005KT WIND THR13 14004KT BLU


Station Type Date Time Source
LIPL Decoded METAR 2021/09/25 10:55 UTC NOAA

Brescia / Ghedi, Italy (LIPL) 45-25N 010-17E 97M
Sep 25, 2021 - 06:55 AM EDT / 2021.09.25 1055 UTC
Wind: from the SSE (150 degrees) at 6 MPH (5 KT):0
Visibility: greater than 7 mile(s):0
Sky conditions: partly cloudy
Temperature: 73 F (23 C)
Dew Point: 64 F (18 C)
Relative Humidity: 73%
Pressure (altimeter): 30.15 in. Hg (1021 hPa)
ob: LIPL 251055Z 15005KT 9999 SCT036 23/18 Q1021 RMK SCT VIS MIN 9999 WIND THR31 13005KT WIND THR13 14004KT BLU
cycle: 11

Station Type Date Time Source
LIPL TAF 2021/07/07 09:24 UTC NOAA

TAF TAF LIPL 070800Z 0709/0721 12008KT CAVOK

Example: see airport list